Latest Coastal Weather Observations for Norfolk Island

IDN60701

Issued at 6:51 pm EST Sunday 28 August 2016 (issued every 10 minutes, with the page automatically refreshed every 10 minutes)

About coastal observations | Map of coastal stations | Coastal observations for NSW | Marine services | Other Formats
Station Details ID: 200288 Name: NORFOLK ISLAND AERO Lat: -29.04 Lon: 167.94 Height: 111.73 m
Data from the previous 72 hours. | See also: Recent months at Norfolk Island
Date/Time
EST
Temp
°C
Wind Pressure Rain since
9am
mm
Weather Cloud Vis
km
Sea
Height
m
Swell
Dir  Spd
kts
Gust
kts
hPa Trend Height
m
Period
s
Dir
28/06:30pm 17.2 WSW 12 17 1013.1 - 2.6 - Partly cloudy 10 - - - -
28/06:00pm 17.4 SW 12 18 1012.9 - 2.6 - Partly cloudy 10 - - - -
28/05:30pm 17.3 SW 13 17 1012.5 - 2.6 - Partly cloudy 10 - - - -
28/05:00pm 17.1 SW 12 18 1012.2 - 2.6 - Cloudy 10 - - - -
28/04:30pm 17.3 WSW 12 17 1011.8 - 2.6 - Partly cloudy 10 - - - -
28/04:00pm 17.7 WSW 13 17 1011.5 - 2.6 - Partly cloudy 10 - - - -
28/03:30pm 17.8 WSW 12 15 1011.3 - 2.6 - Partly cloudy 10 - - - -
28/03:00pm 17.8 WSW 10 13 1011.2 - 2.6 - Partly cloudy 10 - - - -
28/02:30pm 18.1 SW 8 10 1011.3 - 2.6 - Cloudy 10 - - - -
28/02:00pm 18.0 SW 8 11 1011.3 - 2.6 - Cloudy 10 - - - -
28/01:30pm 18.2 WSW 9 11 1011.4 - 2.6 - Partly cloudy 10 - - - -
28/01:00pm 18.0 SW 10 13 1011.6 - 2.6 - Partly cloudy 10 - - - -
28/12:37pm 17.6 SW 10 16 1011.9 - 2.6 - Partly cloudy 10 - - - -
28/12:30pm 17.7 SW 12 17 1011.9 - 2.6 - Partly cloudy 10 - - - -
28/12:24pm 17.4 SW 12 16 1011.9 - 2.6 - Partly cloudy 10 - - - -
28/12:00pm 17.0 SW 15 22 1012.2 - 2.6 - Cloudy 2 - - - -
28/11:56am 17.1 SW 15 22 1012.2 - 2.6 - Cloudy 5 - - - -
28/11:30am 18.2 SW 10 13 1012.6 - 2.6 - Partly cloudy 10 - - - -
28/11:00am 18.0 SW 9 11 1013.0 - 2.4 Drizzle Cloudy 2 - - - -
28/10:30am 17.9 WSW 9 10 1013.3 - 1.8 - Partly cloudy 2 - - - -
28/10:00am 17.8 SW 6 9 1013.5 - 1.2 - Cloudy 2 - - - -
28/09:40am 18.4 SE 5 7 1013.6 - 1.0 - Partly cloudy 6 - - - -
28/09:30am 18.8 NNE 4 6 1013.7 - 1.0 - Partly cloudy 10 - - - -
28/09:25am 18.9 NNE 4 6 1013.8 - 1.0 - Partly cloudy 10 - - - -
28/09:00am 18.2 NE 6 8 1014.1 - 1.0 - Partly cloudy 4 - - - -
28/08:30am 17.5 NE 5 7 1014.6 - 0.4 - Partly cloudy 2 - - - -
28/08:00am 17.2 NE 5 7 1014.6 - 5.4 Showers Cloudy 2 - - - -
28/07:55am 17.2 ENE 5 7 1014.6 - 5.4 - Partly cloudy 2 - - - -
28/07:52am 17.4 ENE 6 7 1014.5 - 5.4 - Partly cloudy 3 - - - -
28/07:30am 17.5 ENE 7 10 1014.7 - 5.0 - Partly cloudy 2 - - - -
28/07:24am 17.5 ENE 8 11 1014.6 - 4.8 - Partly cloudy 2 - - - -
28/07:07am 17.9 ENE 7 9 1014.4 - 4.4 - Partly cloudy 5 - - - -
28/07:00am 17.9 ENE 5 7 1014.4 - 4.4 - Partly cloudy 10 - - - -
28/06:53am 17.8 ENE 5 6 1014.4 - 4.4 - Partly cloudy 10 - - - -
28/06:48am 17.7 NE 5 7 1014.4 - 4.4 - Partly cloudy 10 - - - -
28/06:33am 17.6 ENE 6 8 1014.5 - 4.4 - Partly cloudy 6 - - - -
28/06:30am 17.5 E 6 8 1014.5 - 4.4 - Partly cloudy 10 - - - -
28/06:15am 17.4 E 7 9 1014.4 - 4.4 - Partly cloudy 10 - - - -
28/06:00am 17.3 E 7 9 1014.2 - 4.4 - Partly cloudy 10 - - - -
28/05:40am 17.1 E 7 9 1014.1 - 4.4 - Partly cloudy 10 - - - -
28/05:30am 17.1 E 7 9 1014.1 - 4.4 - Partly cloudy 10 - - - -
28/05:24am 17.2 ENE 7 9 1013.9 - 4.4 - Partly cloudy 10 - - - -
28/05:00am 17.2 E 9 15 1013.7 - 4.0 Showers Cloudy 6 - - - -
28/04:57am 17.3 E 8 15 1013.7 - 4.0 - Partly cloudy 10 - - - -
28/04:30am 17.4 ENE 9 13 1013.5 - 4.0 - Partly cloudy 8 - - - -
28/04:02am 17.3 ENE 10 13 1013.4 - 4.0 - Partly cloudy 10 - - - -
28/04:00am 17.2 ENE 10 13 1013.5 - 4.0 - Partly cloudy 10 - - - -
28/03:41am 17.2 ENE 9 13 1013.1 - 4.0 - Partly cloudy 10 - - - -
28/03:30am 17.0 ENE 8 11 1013.0 - 4.0 - Partly cloudy 10 - - - -
28/03:00am 17.0 E 6 7 1013.0 - 4.0 - Partly cloudy 10 - - - -
28/02:30am 17.0 ENE 8 10 1013.4 - 4.0 - Partly cloudy 10 - - - -
28/02:00am 16.9 ENE 9 11 1013.9 - 4.0 Showers Cloudy 10 - - - -
28/01:48am 16.9 ENE 9 12 1013.9 - 4.0 - Partly cloudy 10 - - - -
28/01:30am 17.0 ENE 8 10 1014.1 - 4.0 - Partly cloudy 10 - - - -
28/01:00am 17.2 ENE 8 12 1014.9 - 3.8 - Cloudy 10 - - - -
28/12:30am 17.2 NE 7 10 1015.3 - 3.6 - Partly cloudy 10 - - - -
28/12:03am 17.3 NE 8 12 1015.5 - 3.6 - Partly cloudy 10 - - - -
28/12:00am 17.3 NE 7 11 1015.6 - 3.6 - Partly cloudy 10 - - - -
 
Date/Time
EST
Temp
°C
Wind Pressure Rain since
9am
mm
Weather Cloud Vis
km
Sea
Height
m
Swell
Dir  Spd
kts
Gust
kts
hPa Trend Height
m
Period
s
Dir
27/11:55pm 17.3 NE 7 11 1015.6 - 3.6 - Partly cloudy 10 - - - -
27/11:30pm 17.4 NNE 8 14 1016.3 - 3.4 - Partly cloudy 9 - - - -
27/11:00pm 17.5 NE 8 16 1016.4 - 3.0 Showers Cloudy 10 - - - -
27/10:53pm 17.5 NE 8 16 1016.5 - 3.0 - Partly cloudy 10 - - - -
27/10:30pm 17.4 NE 9 15 1016.4 - 3.0 - Partly cloudy 10 - - - -
27/10:18pm 17.3 NE 9 13 1016.5 - 3.0 - Partly cloudy 10 - - - -
27/10:00pm 17.3 NE 9 14 1017.0 - 3.0 - Cloudy 10 - - - -
27/09:43pm 17.2 NE 10 14 1017.0 - 3.0 - Cloudy 10 - - - -
27/09:30pm 17.0 NE 9 13 1017.1 - 3.0 - Cloudy 10 - - - -
27/09:07pm 16.9 NE 10 16 1017.4 - 3.0 - Cloudy 10 - - - -
27/09:00pm 16.9 NE 10 16 1017.5 - 3.0 - Cloudy 10 - - - -
27/08:30pm 16.8 NE 12 17 1017.4 - 3.0 - Partly cloudy 10 - - - -
27/08:00pm 16.7 NE 11 16 1017.9 - 3.0 Showers Cloudy 10 - - - -
27/07:34pm 16.6 NNE 13 19 1018.1 - 3.0 - Partly cloudy 10 - - - -
27/07:30pm 16.6 NNE 12 19 1018.1 - 3.0 - Partly cloudy 10 - - - -
27/07:11pm 16.9 NNE 9 16 1018.2 - 3.0 - Cloudy 6 - - - -
27/07:00pm 16.9 NNE 11 17 1018.4 - 2.4 - Cloudy 10 - - - -
27/06:40pm 16.9 NNE 9 16 1018.3 - 2.2 - Partly cloudy 10 - - - -
27/06:30pm 16.8 NNE 8 10 1018.4 - 2.2 - Cloudy 5 - - - -
27/06:21pm 16.8 NNE 8 12 1018.1 - 2.2 - Cloudy 5 - - - -
27/06:00pm 16.9 NNE 8 14 1017.9 - 2.2 - Partly cloudy 10 - - - -
27/05:33pm 17.1 N 6 10 1018.3 - 2.0 - Partly cloudy 10 - - - -
27/05:30pm 17.1 N 6 10 1018.3 - 2.0 - Partly cloudy 10 - - - -
27/05:25pm 17.0 N 7 14 1018.1 - 2.0 - Partly cloudy 10 - - - -
27/05:04pm 17.0 NNE 7 9 1017.7 - 2.0 - Partly cloudy 10 - - - -
27/05:00pm 16.9 N 7 10 1017.7 - 2.0 Drizzle Cloudy 10 - - - -
27/04:30pm 16.7 N 5 8 1017.6 - 2.0 - Partly cloudy 10 - - - -
27/04:03pm 16.8 N 8 13 1017.6 - 2.0 - Partly cloudy 10 - - - -
27/04:00pm 16.8 N 8 13 1017.7 - 2.0 - Partly cloudy 10 - - - -
27/03:32pm 17.0 N 6 10 1017.8 - 1.6 - Partly cloudy 10 - - - -
27/03:30pm 17.1 N 6 11 1017.7 - 1.6 - Partly cloudy 10 - - - -
27/03:25pm 17.1 N 7 11 1017.7 - 1.6 - Partly cloudy 10 - - - -
27/03:00pm 17.1 N 6 10 1017.7 - 1.6 - Partly cloudy 10 - - - -
27/02:47pm 17.2 NNW 3 5 1017.6 - 1.6 - Partly cloudy 10 - - - -
27/02:30pm 17.2 N 5 9 1017.2 - 1.6 - Partly cloudy 10 - - - -
27/02:00pm 17.0 N 5 10 1016.9 - 1.6 Showers Cloudy 10 - - - -
27/01:30pm 17.2 N 7 11 1017.2 - 1.4 - Partly cloudy 10 - - - -
27/01:00pm 17.0 N 9 15 1017.1 - 1.4 - Partly cloudy 10 - - - -
27/12:30pm 16.9 N 9 14 1017.7 - 1.2 - Partly cloudy 10 - - - -
27/12:00pm 16.9 N 9 15 1017.8 - 1.0 - Cloudy 10 - - - -
27/11:30am 17.1 NNW 8 15 1018.6 - 0.6 - Partly cloudy 10 - - - -
27/11:02am 17.6 NNW 7 14 1019.1 - 0.4 - Partly cloudy 10 - - - -
27/11:00am 17.8 NNW 6 11 1019.2 - 0.4 Rain Cloudy 10 - - - -
27/10:30am 17.8 NNW 6 13 1019.0 - 0.4 - Partly cloudy 10 - - - -
27/10:20am 17.5 NW 7 12 1019.3 - 0.4 - Partly cloudy 10 - - - -
27/10:00am 17.5 NNW 8 13 1019.7 - 0.4 - Partly cloudy 10 - - - -
27/09:30am 17.2 NW 8 15 1020.5 - 0.4 - Partly cloudy 10 - - - -
27/09:00am 17.1 WNW 7 16 1020.5 - 0.2 - Partly cloudy 10 - - - -
27/08:52am 17.2 NW 8 16 1020.7 - 0.2 - Partly cloudy 10 - - - -
27/08:30am 17.3 NW 8 15 1020.4 - 0.0 - Partly cloudy 10 - - - -
27/08:00am 17.2 NW 8 11 1019.9 - 13.2 Rain Cloudy 10 - - - -
27/07:30am 17.3 N 9 14 1019.1 - 13.2 - Partly cloudy 10 - - - -
27/07:00am 17.4 NW 6 10 1019.5 - 13.2 - Partly cloudy 10 - - - -
27/06:30am 17.1 NW 9 15 1019.6 - 13.2 - Partly cloudy 10 - - - -
27/06:00am 17.0 NW 8 17 1019.5 - 12.8 - Partly cloudy 10 - - - -
27/05:30am 16.9 NW 8 15 1019.4 - 12.6 - Partly cloudy 10 - - - -
27/05:00am 17.1 NW 8 14 1019.4 - 12.2 Rain Cloudy 10 - - - -
27/04:37am 16.9 WNW 8 15 1018.9 - 12.0 - Partly cloudy 10 - - - -
27/04:30am 16.9 WNW 8 13 1018.8 - 12.0 - Partly cloudy 10 - - - -
27/04:10am 16.7 WNW 11 18 1018.5 - 12.0 - Partly cloudy 10 - - - -
27/04:00am 16.7 WNW 11 18 1018.3 - 12.0 - Partly cloudy 10 - - - -
27/03:30am 16.6 WNW 10 17 1018.3 - 11.8 - Partly cloudy 10 - - - -
27/03:00am 16.4 WNW 9 18 1017.9 - 11.8 - Partly cloudy 10 - - - -
27/02:46am 16.4 WNW 9 15 1017.8 - 11.8 - Partly cloudy 10 - - - -
27/02:40am 16.3 WNW 10 17 1017.7 - 11.8 - Partly cloudy 10 - - - -
27/02:30am 16.2 NW 10 18 1017.4 - 11.8 - Partly cloudy 10 - - - -
27/02:09am 16.5 NW 8 15 1017.8 - 11.4 - Partly cloudy 9 - - - -
27/02:00am 16.5 NW 9 17 1017.7 - 11.2 Rain Cloudy 10 - - - -
27/01:30am 16.1 NNW 8 15 1017.9 - 10.8 - Partly cloudy 10 - - - -
27/01:00am 15.7 NNE 6 9 1018.1 - 10.4 - Cloudy 8 - - - -
27/12:30am 15.4 NNE 1 4 1018.5 - 9.6 - Partly cloudy 10 - - - -
27/12:00am 15.5 NNE 4 5 1018.1 - 9.6 - Partly cloudy 10 - - - -
 
Date/Time
EST
Temp
°C
Wind Pressure Rain since
9am
mm
Weather Cloud Vis
km
Sea
Height
m
Swell
Dir  Spd
kts
Gust
kts
hPa Trend Height
m
Period
s
Dir
26/11:52pm 15.5 NNE 3 5 1017.9 - 9.6 - Partly cloudy 7 - - - -
26/11:30pm 15.6 CALM 0 0 1018.4 - 8.8 - Partly cloudy 4 - - - -
26/11:09pm 15.7 CALM 0 0 1018.6 - 7.2 - Partly cloudy 6 - - - -
26/11:00pm 15.7 CALM 0 0 1018.1 - 7.0 Rain Cloudy 10 - - - -
26/10:30pm 15.7 CALM 0 0 1018.2 - 7.0 - Partly cloudy 10 - - - -
26/10:00pm 15.8 NNE 3 4 1017.9 - 6.6 - Partly cloudy 10 - - - -
26/09:47pm 15.9 N 3 6 1018.1 - 6.4 - Partly cloudy 10 - - - -
26/09:37pm 15.9 N 3 5 1018.3 - 6.4 - Partly cloudy 6 - - - -
26/09:30pm 15.9 N 4 6 1018.1 - 6.2 - Partly cloudy 8 - - - -
26/09:18pm 16.1 NW 4 6 1018.3 - 6.0 - Partly cloudy 9 - - - -
26/09:00pm 16.1 WNW 4 8 1018.1 - 5.8 - Partly cloudy 6 - - - -
26/08:54pm 16.2 WNW 5 8 1018.3 - 5.4 - Partly cloudy 6 - - - -
26/08:35pm 16.3 WNW 5 6 1018.3 - 4.6 - Partly cloudy 6 - - - -
26/08:30pm 16.3 WNW 4 5 1018.2 - 4.6 - Partly cloudy 5 - - - -
26/08:12pm 16.4 W 4 5 1017.9 - 2.8 - Partly cloudy 6 - - - -
26/08:00pm 16.4 CALM 0 0 1017.5 - 2.0 Rain Cloudy 9 - - - -
26/07:30pm 16.4 CALM 0 0 1017.2 - 1.8 - Partly cloudy 10 - - - -
26/07:16pm 16.4 W 5 7 1017.6 - 1.8 - Partly cloudy 10 - - - -
26/07:00pm 16.3 NNW 4 6 1017.1 - 1.8 - Partly cloudy 8 - - - -
26/06:57pm 16.3 NW 4 6 1017.0 - 1.8 - Partly cloudy 8 - - - -
26/06:42pm 16.4 WNW 4 8 1017.4 - 1.4 - Partly cloudy 6 - - - -
26/06:32pm 16.8 WSW 6 9 1017.6 - 1.2 - Partly cloudy 6 - - - -
26/06:30pm 16.7 WSW 6 9 1017.8 - 1.0 - Partly cloudy 7 - - - -
26/06:00pm 16.4 WNW 4 6 1016.9 - 0.4 - Partly cloudy 10 - - - -
26/05:30pm 16.8 W 7 10 1016.7 - 0.2 - Partly cloudy 7 - - - -
26/05:00pm 17.7 W 6 9 1017.0 - 0.0 Showers Cloudy 10 - - - -
26/04:30pm 17.6 NW 4 5 1016.3 - 0.0 - Cloudy 10 - - - -
26/04:00pm 17.8 NW 6 9 1016.0 - 0.0 - Partly cloudy 10 - - - -
26/03:30pm 17.9 W 9 13 1016.0 - 0.0 - Cloudy 10 - - - -
26/03:00pm 17.9 W 8 12 1014.6 - 0.0 - Mostly clear 10 - - - -
26/02:30pm 17.8 WNW 6 10 1014.1 - 0.0 - Mostly cloudy 10 - - - -
26/02:00pm 17.9 W 10 15 1014.9 - 0.0 Drizzle Cloudy 10 - - - -
26/01:30pm 17.8 W 9 13 1014.8 - 0.0 - Mostly cloudy 10 - - - -
26/01:00pm 17.9 WNW 8 11 1014.8 - 0.0 - Partly cloudy 10 - - - -
26/12:30pm 18.1 W 12 15 1015.2 - 0.0 - Cloudy 10 - - - -
26/12:00pm 18.0 W 10 15 1015.3 - 0.0 - Cloudy 10 - - - -
26/11:30am 18.2 WNW 9 16 1015.5 - 0.0 Rain Mostly cloudy 10 - - - -
26/11:00am 17.7 W 9 14 1015.5 - 0.0 Rain Cloudy 10 - - - -
26/10:30am 17.6 WNW 7 9 1015.2 - 0.0 - Mostly cloudy 10 - - - -
26/10:00am 17.4 W 9 12 1015.4 - 0.0 - Partly cloudy 10 - - - -
26/09:30am 17.4 WNW 7 10 1015.2 - 0.0 - Mostly clear 10 - - - -
26/09:00am 16.9 WNW 8 12 1015.4 - 0.0 - Mostly clear 10 - - - -
26/08:30am 16.6 W 12 16 1015.6 - 0.0 Rain Mostly clear 9 - - - -
26/08:22am 16.5 W 10 14 1015.3 - 0.0 - Partly cloudy 10 - - - -
26/08:00am 16.3 WSW 9 14 1015.1 - 23.4 Rain Cloudy 8 - - - -
26/07:30am 16.4 WSW 15 23 1015.4 - 22.8 Rain Mostly cloudy 6 - - - -
26/07:00am 17.0 W 14 23 1014.4 - 22.0 - Mostly cloudy 4 - - - -
26/06:44am 18.1 WNW 15 22 1014.4 - 21.2 - Cloudy 6 - - - -
26/06:30am 18.0 WNW 14 21 1014.2 - 20.8 - Cloudy 9 - - - -
26/06:00am 18.0 WNW 15 22 1013.9 - 20.4 - Cloudy 7 - - - -
26/05:36am 18.0 WNW 15 25 1013.8 - 19.8 - Partly cloudy 10 - - - -
26/05:30am 18.0 WNW 14 22 1013.2 - 19.8 - Partly cloudy 9 - - - -
26/05:10am 18.0 WNW 15 25 1013.3 - 19.8 - Partly cloudy 8 - - - -
26/05:00am 17.9 WNW 13 21 1012.5 - 19.6 Rain Cloudy 9 - - - -
26/04:44am 18.1 WNW 17 27 1012.8 - 19.4 - Partly cloudy 8 - - - -
26/04:30am 18.2 W 17 25 1012.9 - 19.4 - Partly cloudy 9 - - - -
26/04:00am 18.1 WNW 15 28 1012.0 - 19.0 - Partly cloudy 8 - - - -
26/03:38am 18.3 WNW 15 26 1012.2 - 18.6 - Partly cloudy 9 - - - -
26/03:30am 18.1 WNW 13 20 1011.4 - 18.6 - Partly cloudy 9 - - - -
26/03:22am 18.2 WNW 17 28 1011.7 - 18.4 - Partly cloudy 10 - - - -
26/03:04am 18.2 WNW 15 25 1011.5 - 18.2 - Partly cloudy 10 - - - -
26/03:00am 18.1 WNW 13 22 1011.3 - 18.2 - Cloudy 10 - - - -
26/02:37am 18.1 WNW 15 25 1011.2 - 18.0 - Partly cloudy 10 - - - -
26/02:30am 17.9 WNW 15 23 1011.0 - 18.0 - Partly cloudy 10 - - - -
26/02:07am 17.9 WNW 15 22 1010.1 - 18.0 - Partly cloudy 10 - - - -
26/02:00am 18.0 WNW 16 24 1011.2 - 18.0 Drizzle Mostly cloudy 10 - - - -
26/01:31am 17.9 WNW 16 26 1011.1 - 17.8 - Partly cloudy 9 - - - -
26/01:30am 17.9 WNW 17 26 1011.1 - 17.8 - Partly cloudy 10 - - - -
26/01:24am 18.0 W 15 26 1011.2 - 17.6 - Partly cloudy 10 - - - -
26/01:01am 17.8 WNW 13 20 1010.8 - 17.2 - Partly cloudy 10 - - - -
26/01:00am 17.8 WNW 13 20 1010.9 - 17.2 - Partly cloudy 10 - - - -
26/12:36am 17.7 W 19 29 1011.6 - 17.0 - Cloudy 1 - - - -
26/12:30am 18.5 W 19 28 1011.6 - 17.0 - Cloudy 0.6 - - - -
26/12:24am 18.7 W 18 28 1011.6 - 16.6 - Cloudy 0.7 - - - -
26/12:00am 19.1 WNW 14 22 1010.9 - 15.8 - Cloudy 5 - - - -
 
Date/Time
EST
Temp
°C
Wind Pressure Rain since
9am
mm
Weather Cloud Vis
km
Sea
Height
m
Swell
Dir  Spd
kts
Gust
kts
hPa Trend Height
m
Period
s
Dir
25/11:45pm 19.0 WNW 15 26 1011.3 - 15.8 - Cloudy 5 - - - -
25/11:30pm 18.8 NW 11 20 1010.9 - 15.6 - Cloudy 4 - - - -
25/11:00pm 18.7 WNW 13 23 1011.4 - 15.6 Showers Cloudy 4 - - - -
25/10:44pm 18.5 WNW 10 20 1011.7 - 15.6 - Cloudy 6 - - - -
25/10:30pm 18.3 WNW 11 18 1011.6 - 15.4 - Cloudy 10 - - - -
25/10:00pm 17.9 NW 8 16 1010.3 - 15.4 - Partly cloudy 10 - - - -
25/09:30pm 17.9 N 11 18 1009.4 - 15.4 - Partly cloudy 10 - - - -
25/09:00pm 17.8 NW 8 13 1011.0 - 15.2 - Partly cloudy 10 - - - -
25/08:54pm 17.8 NNW 8 11 1011.0 - 15.2 - Cloudy 10 - - - -
25/08:30pm 18.1 WNW 9 14 1012.0 - 14.8 - Cloudy 5 - - - -
25/08:00pm 18.1 WNW 11 16 1012.1 - 14.0 Drizzle Cloudy 6 - - - -
25/07:30pm 18.1 W 10 17 1012.3 - 13.4 - Cloudy 5 - - - -
25/07:00pm 18.3 W 13 22 1012.3 - 11.4 - Partly cloudy 3 - - - -
25/06:30pm 18.2 W 17 27 1012.1 - 6.4 - Partly cloudy 3 - - - -
25/06:24pm 18.3 W 16 27 1011.9 - 6.0 - Partly cloudy 2 - - - -
25/06:00pm 18.9 WNW 13 20 1011.8 - 2.4 - Cloudy 3 - - - -
25/05:52pm 19.0 WNW 13 24 1011.7 - 2.0 - Cloudy 6 - - - -
25/05:30pm 18.9 WNW 13 22 1011.3 - 1.8 - Cloudy 9 - - - -

Other Formats:

Comma delimited format used in spreadsheet applications
http://www.bom.gov.au/fwo/IDN60701/IDN60701.94996.axf

JavaScript Object Notation format (JSON) in row-major order
http://www.bom.gov.au/fwo/IDN60701/IDN60701.94996.json